Time;durP1;ratioP1;P1;durP2;ratioP2;P2;SDS_P1;SDS_P2;PMS_P1;PMS_P2;Temp;Humidity;BMP_temperature;BMP_pressure;BME280_temperature;BME280_humidity;BME280_pressure;Samples;Min_cycle;Max_cycle;Signal;HPM_P1;HPM_P2
2022/03/06 00:01:37;;;;;;;8.77;6.87;;;;;;;;;;6126971;23;20180;-82
2022/03/06 00:04:05;;;;;;;14.47;9.40;;;;;;;;;;6102673;23;20283;-82
2022/03/06 00:06:34;;;;;;;9.60;7.57;;;;;;;;;;6128163;23;20173;-82
2022/03/06 00:09:04;;;;;;;13.63;10.07;;;;;;;;;;6127872;23;20183;-82
2022/03/06 00:11:32;;;;;;;12.27;10.17;;;;;;;;;;6127640;23;20172;-82
2022/03/06 00:14:01;;;;;;;14.13;10.47;;;;;;;;;;6102131;23;20181;-82
2022/03/06 00:16:29;;;;;;;12.53;9.43;;;;;;;;;;6127473;23;20196;-82
2022/03/06 00:18:58;;;;;;;10.03;8.83;;;;;;;;;;6126676;23;20278;-82
2022/03/06 00:21:26;;;;;;;13.17;9.87;;;;;;;;;;6101944;23;20176;-84
2022/03/06 00:23:55;;;;;;;6.03;5.43;;;;;;;;;;6102453;23;20176;-82
2022/03/06 00:26:24;;;;;;;16.30;11.47;;;;;;;;;;6102067;23;20195;-82
2022/03/06 00:28:53;;;;;;;14.70;9.67;;;;;;;;;;6102721;23;20186;-82
2022/03/06 00:31:22;;;;;;;12.57;11.10;;;;;;;;;;6126144;23;20227;-82
2022/03/06 00:33:51;;;;;;;14.97;10.27;;;;;;;;;;6102404;23;20177;-82
2022/03/06 00:36:19;;;;;;;8.20;7.07;;;;;;;;;;6128249;23;20197;-82
2022/03/06 00:38:48;;;;;;;9.87;8.90;;;;;;;;;;6127886;23;20172;-82
2022/03/06 00:41:17;;;;;;;14.50;12.83;;;;;;;;;;6101795;23;20181;-82
2022/03/06 00:43:47;;;;;;;11.43;8.60;;;;;;;;;;6101781;23;20181;-82
2022/03/06 00:46:15;;;;;;;18.63;10.17;;;;;;;;;;6127175;23;20168;-82
2022/03/06 00:48:44;;;;;;;10.80;8.87;;;;;;;;;;6127662;23;20176;-82
2022/03/06 00:51:13;;;;;;;8.07;7.27;;;;;;;;;;6126939;23;20204;-82
2022/03/06 00:53:42;;;;;;;16.07;11.93;;;;;;;;;;6101962;23;20176;-82
2022/03/06 00:56:10;;;;;;;12.47;8.40;;;;;;;;;;6102039;23;20196;-82
2022/03/06 00:58:39;;;;;;;11.43;8.67;;;;;;;;;;6101844;23;20176;-82
2022/03/06 01:01:09;;;;;;;11.30;8.33;;;;;;;;;;6127337;23;20176;-82
2022/03/06 01:03:38;;;;;;;14.60;11.77;;;;;;;;;;6101434;23;20196;-82
2022/03/06 01:06:06;;;;;;;12.27;10.63;;;;;;;;;;6101795;23;20259;-82
2022/03/06 01:08:34;;;;;;;11.97;10.57;;;;;;;;;;6126088;23;20176;-82
2022/03/06 01:11:03;;;;;;;12.33;11.07;;;;;;;;;;6102197;23;20176;-82
2022/03/06 01:13:31;;;;;;;14.53;12.67;;;;;;;;;;6127565;23;20236;-82
2022/03/06 01:16:00;;;;;;;14.10;10.43;;;;;;;;;;6101773;23;20177;-82
2022/03/06 01:18:34;;;;;;;10.80;8.40;;;;;;;;;;6127374;23;20183;-83
2022/03/06 01:21:03;;;;;;;12.57;9.60;;;;;;;;;;6101959;23;20173;-82
2022/03/06 01:23:32;;;;;;;11.23;7.20;;;;;;;;;;6101818;23;20180;-82
2022/03/06 01:26:00;;;;;;;8.43;7.33;;;;;;;;;;6101554;23;20223;-83
2022/03/06 01:28:28;;;;;;;15.07;13.00;;;;;;;;;;6101614;23;20609;-82
2022/03/06 01:30:57;;;;;;;9.03;7.17;;;;;;;;;;6125969;23;20231;-82
2022/03/06 01:33:25;;;;;;;11.43;10.23;;;;;;;;;;6101482;23;20184;-82
2022/03/06 01:35:55;;;;;;;9.47;8.47;;;;;;;;;;6127317;23;20195;-82
2022/03/06 01:38:24;;;;;;;11.33;10.17;;;;;;;;;;6126029;23;20188;-82
2022/03/06 01:40:52;;;;;;;9.57;7.70;;;;;;;;;;6125665;23;20187;-83
2022/03/06 01:43:21;;;;;;;8.63;7.83;;;;;;;;;;6127167;23;20199;-82
2022/03/06 01:45:49;;;;;;;10.00;8.60;;;;;;;;;;6127266;23;20187;-82
2022/03/06 01:48:17;;;;;;;12.50;11.20;;;;;;;;;;6101721;23;20176;-82
2022/03/06 01:50:46;;;;;;;11.37;8.67;;;;;;;;;;6101559;23;20219;-82
2022/03/06 01:53:16;;;;;;;7.60;5.83;;;;;;;;;;6125935;23;20179;-82
2022/03/06 01:55:44;;;;;;;10.70;8.93;;;;;;;;;;6101417;23;20177;-82
2022/03/06 01:58:13;;;;;;;9.47;8.47;;;;;;;;;;6101383;23;20208;-82
2022/03/06 02:00:44;;;;;;;8.63;7.80;;;;;;;;;;6125767;23;20176;-82
2022/03/06 02:03:14;;;;;;;10.53;8.73;;;;;;;;;;6101210;23;20243;-82
2022/03/06 02:05:43;;;;;;;14.17;8.00;;;;;;;;;;6100845;23;20184;-82
2022/03/06 02:08:11;;;;;;;13.30;11.97;;;;;;;;;;6101471;23;20172;-82
2022/03/06 02:10:41;;;;;;;13.30;11.93;;;;;;;;;;6126931;23;20169;-82
2022/03/06 02:13:10;;;;;;;7.57;6.77;;;;;;;;;;6125567;23;20177;-82
2022/03/06 02:15:38;;;;;;;10.20;9.20;;;;;;;;;;6126896;23;20165;-84
2022/03/06 02:18:07;;;;;;;9.60;8.67;;;;;;;;;;6100667;23;20204;-82
2022/03/06 02:20:37;;;;;;;12.07;8.40;;;;;;;;;;6125612;23;20181;-82
2022/03/06 02:23:06;;;;;;;11.37;8.00;;;;;;;;;;6101038;23;20181;-82
2022/03/06 02:25:36;;;;;;;11.90;8.93;;;;;;;;;;6101102;23;20227;-82
2022/03/06 02:28:06;;;;;;;10.67;8.93;;;;;;;;;;6100998;23;20184;-82
2022/03/06 02:30:36;;;;;;;9.70;7.40;;;;;;;;;;6101312;23;20172;-82
2022/03/06 02:33:06;;;;;;;9.57;8.63;;;;;;;;;;6101336;23;20183;-82
2022/03/06 02:35:35;;;;;;;8.97;8.10;;;;;;;;;;6125327;23;20187;-82
2022/03/06 02:38:04;;;;;;;8.37;6.67;;;;;;;;;;6126866;23;20192;-82
2022/03/06 02:40:38;;;;;;;8.70;7.90;;;;;;;;;;6101209;23;20176;-82
2022/03/06 02:43:07;;;;;;;12.33;8.97;;;;;;;;;;6126774;23;20176;-82
2022/03/06 02:45:36;;;;;;;6.83;6.23;;;;;;;;;;6101308;23;20231;-82
2022/03/06 02:48:04;;;;;;;8.07;7.37;;;;;;;;;;6101550;23;20223;-82
2022/03/06 02:50:34;;;;;;;8.50;7.53;;;;;;;;;;6100956;23;20208;-82
2022/03/06 02:53:03;;;;;;;7.93;6.87;;;;;;;;;;6101149;23;20177;-82
2022/03/06 02:55:33;;;;;;;4.40;4.00;;;;;;;;;;6101404;23;20176;-82
2022/03/06 02:58:02;;;;;;;7.33;6.73;;;;;;;;;;6126791;23;20188;-82
2022/03/06 03:00:30;;;;;;;7.20;6.50;;;;;;;;;;6127037;23;20172;-82
2022/03/06 03:02:59;;;;;;;6.93;5.67;;;;;;;;;;6100752;23;20228;-82
2022/03/06 03:05:29;;;;;;;6.47;4.47;;;;;;;;;;6101430;23;20203;-82
2022/03/06 03:07:58;;;;;;;8.77;7.93;;;;;;;;;;6101054;23;20180;-82
2022/03/06 03:10:27;;;;;;;8.53;6.00;;;;;;;;;;6101510;23;20183;-82
2022/03/06 03:12:57;;;;;;;9.43;7.53;;;;;;;;;;6125491;23;20176;-82
2022/03/06 03:15:25;;;;;;;8.77;7.03;;;;;;;;;;6101205;23;20176;-82
2022/03/06 03:17:53;;;;;;;7.90;6.70;;;;;;;;;;6126014;23;20200;-82
2022/03/06 03:20:22;;;;;;;7.83;7.03;;;;;;;;;;6100749;23;20227;-82
2022/03/06 03:22:50;;;;;;;6.77;6.17;;;;;;;;;;6125344;23;20272;-82
2022/03/06 03:25:19;;;;;;;9.80;8.00;;;;;;;;;;6126449;23;20177;-82
2022/03/06 03:27:47;;;;;;;5.90;5.30;;;;;;;;;;6127573;23;20187;-82
2022/03/06 03:30:17;;;;;;;5.03;4.53;;;;;;;;;;6128242;23;20175;-82
2022/03/06 03:32:46;;;;;;;5.27;4.60;;;;;;;;;;6127240;23;20223;-82
2022/03/06 03:35:14;;;;;;;6.77;4.47;;;;;;;;;;6128318;23;20172;-81
2022/03/06 03:37:42;;;;;;;8.43;5.23;;;;;;;;;;6102590;23;20188;-82
2022/03/06 03:40:11;;;;;;;7.70;6.60;;;;;;;;;;6127653;23;20173;-82
2022/03/06 03:42:40;;;;;;;2.90;2.70;;;;;;;;;;6128153;23;20223;-82
2022/03/06 03:45:09;;;;;;;4.63;4.23;;;;;;;;;;6127725;23;20238;-82
2022/03/06 03:47:39;;;;;;;6.83;3.33;;;;;;;;;;6102503;23;20172;-82
2022/03/06 03:50:08;;;;;;;6.60;5.80;;;;;;;;;;6126631;23;20212;-82
2022/03/06 03:52:36;;;;;;;6.03;5.63;;;;;;;;;;6102994;23;20176;-82
2022/03/06 03:55:05;;;;;;;8.77;2.90;;;;;;;;;;6101842;23;20177;-82
2022/03/06 03:57:34;;;;;;;7.03;6.33;;;;;;;;;;6102409;23;20172;-82
2022/03/06 04:00:02;;;;;;;11.80;5.20;;;;;;;;;;6127657;23;20179;-82
2022/03/06 04:02:30;;;;;;;9.73;7.37;;;;;;;;;;6128439;23;20188;-82
2022/03/06 04:05:00;;;;;;;8.10;5.30;;;;;;;;;;6101634;23;20183;-82
2022/03/06 04:07:29;;;;;;;5.93;5.33;;;;;;;;;;6102061;23;20187;-81
2022/03/06 04:09:57;;;;;;;8.43;5.37;;;;;;;;;;6127981;23;20220;-82
2022/03/06 04:12:26;;;;;;;7.90;7.10;;;;;;;;;;6101903;23;20180;-82
2022/03/06 04:14:54;;;;;;;6.23;5.53;;;;;;;;;;6128212;23;20172;-82
2022/03/06 04:17:22;;;;;;;7.10;6.53;;;;;;;;;;6102442;23;20180;-82
2022/03/06 04:19:51;;;;;;;7.47;6.50;;;;;;;;;;6101524;23;20204;-81
2022/03/06 04:22:20;;;;;;;4.80;3.73;;;;;;;;;;6127882;23;20188;-82
2022/03/06 04:24:49;;;;;;;7.33;6.23;;;;;;;;;;6101349;23;20190;-82
2022/03/06 04:27:17;;;;;;;5.57;5.00;;;;;;;;;;6127380;23;20325;-82
2022/03/06 04:29:46;;;;;;;10.53;8.27;;;;;;;;;;6101585;23;20177;-82
2022/03/06 04:32:14;;;;;;;6.97;6.00;;;;;;;;;;6127576;23;20220;-82
2022/03/06 04:34:42;;;;;;;10.53;8.63;;;;;;;;;;6126284;23;20227;-82
2022/03/06 04:37:11;;;;;;;5.10;4.60;;;;;;;;;;6127701;23;20180;-82
2022/03/06 04:39:41;;;;;;;6.27;5.20;;;;;;;;;;6101492;23;20210;-82
2022/03/06 04:42:09;;;;;;;9.17;8.27;;;;;;;;;;6127395;23;20179;-82
2022/03/06 04:44:38;;;;;;;6.93;6.23;;;;;;;;;;6101414;23;20177;-82
2022/03/06 04:47:08;;;;;;;14.73;8.67;;;;;;;;;;6127238;23;20178;-82
2022/03/06 04:49:36;;;;;;;10.33;6.53;;;;;;;;;;6126813;23;20207;-82
2022/03/06 04:52:05;;;;;;;6.57;5.17;;;;;;;;;;6102013;23;20178;-82
2022/03/06 04:54:34;;;;;;;10.20;7.53;;;;;;;;;;6127596;23;20170;-82
2022/03/06 04:57:04;;;;;;;8.03;5.03;;;;;;;;;;6101688;23;20187;-82
2022/03/06 04:59:32;;;;;;;7.57;5.00;;;;;;;;;;6125936;23;20195;-82
2022/03/06 05:02:00;;;;;;;4.13;3.70;;;;;;;;;;6127438;23;20188;-82
2022/03/06 05:04:29;;;;;;;9.57;7.90;;;;;;;;;;6100940;23;20180;-83
2022/03/06 05:06:57;;;;;;;3.27;3.07;;;;;;;;;;6127236;23;20169;-82
2022/03/06 05:09:26;;;;;;;6.20;5.57;;;;;;;;;;6101351;23;20180;-82
2022/03/06 05:11:54;;;;;;;4.93;4.43;;;;;;;;;;6127399;23;20176;-82
2022/03/06 05:14:24;;;;;;;5.80;5.30;;;;;;;;;;6125562;23;20228;-81
2022/03/06 05:16:52;;;;;;;8.17;7.43;;;;;;;;;;6127074;23;20182;-82
2022/03/06 05:19:21;;;;;;;4.77;4.37;;;;;;;;;;6127009;23;20192;-82
2022/03/06 05:21:49;;;;;;;6.17;5.67;;;;;;;;;;6101649;23;20176;-82
2022/03/06 05:24:18;;;;;;;5.73;4.60;;;;;;;;;;6101299;23;20183;-82
2022/03/06 05:26:46;;;;;;;7.77;6.97;;;;;;;;;;6127554;23;20181;-82
2022/03/06 05:29:14;;;;;;;8.73;6.83;;;;;;;;;;6101216;23;20180;-82
2022/03/06 05:31:44;;;;;;;6.17;4.93;;;;;;;;;;6126737;23;20180;-82
2022/03/06 05:34:13;;;;;;;5.47;5.00;;;;;;;;;;6127390;23;20250;-82
2022/03/06 05:36:41;;;;;;;5.50;5.00;;;;;;;;;;6101188;23;20191;-82
2022/03/06 05:39:10;;;;;;;5.37;4.97;;;;;;;;;;6126924;23;20204;-82
2022/03/06 05:41:38;;;;;;;9.37;7.97;;;;;;;;;;6126959;23;20196;-82
2022/03/06 05:44:06;;;;;;;3.53;3.27;;;;;;;;;;6101117;23;20176;-82
2022/03/06 05:46:35;;;;;;;4.30;4.00;;;;;;;;;;6101072;23;20173;-82
2022/03/06 05:49:12;;;;;;;3.90;3.17;;;;;;;;;;6126785;23;20173;-82
2022/03/06 05:51:41;;;;;;;3.83;3.53;;;;;;;;;;6101203;23;20215;-82
2022/03/06 05:54:09;;;;;;;8.00;5.43;;;;;;;;;;6101088;23;20176;-82
2022/03/06 05:56:39;;;;;;;3.40;3.10;;;;;;;;;;6100887;23;20251;-82
2022/03/06 05:59:07;;;;;;;4.73;4.30;;;;;;;;;;6100958;23;20204;-82
2022/03/06 06:01:38;;;;;;;2.03;2.03;;;;;;;;;;6100983;23;20183;-82
2022/03/06 06:04:08;;;;;;;3.70;3.37;;;;;;;;;;6101032;23;20173;-82
2022/03/06 06:06:36;;;;;;;5.73;4.10;;;;;;;;;;6126772;23;20200;-82
2022/03/06 06:09:05;;;;;;;7.27;5.60;;;;;;;;;;6126455;23;20172;-82
2022/03/06 06:11:33;;;;;;;3.03;2.83;;;;;;;;;;6126472;23;20187;-82
2022/03/06 06:14:02;;;;;;;3.27;3.00;;;;;;;;;;6126770;23;20251;-82
2022/03/06 06:16:30;;;;;;;4.23;3.83;;;;;;;;;;6100783;23;20180;-82
2022/03/06 06:18:59;;;;;;;9.70;6.47;;;;;;;;;;6101134;23;20299;-82
2022/03/06 06:21:28;;;;;;;5.40;4.90;;;;;;;;;;6100679;23;20203;-82
2022/03/06 06:23:57;;;;;;;3.90;3.53;;;;;;;;;;6126405;23;20176;-82
2022/03/06 06:26:25;;;;;;;6.33;3.90;;;;;;;;;;6101310;23;20183;-82
2022/03/06 06:28:56;;;;;;;4.10;3.70;;;;;;;;;;6101082;23;20172;-82
2022/03/06 06:31:25;;;;;;;2.00;1.97;;;;;;;;;;6125321;23;20267;-82
2022/03/06 06:33:54;;;;;;;3.63;3.20;;;;;;;;;;6101309;23;20181;-82
2022/03/06 06:36:23;;;;;;;3.27;3.00;;;;;;;;;;6126430;23;20196;-82
2022/03/06 06:38:53;;;;;;;3.00;2.67;;;;;;;;;;6126601;23;20189;-81
2022/03/06 06:41:21;;;;;;;5.57;4.20;;;;;;;;;;6100464;23;20183;-81
2022/03/06 06:43:50;;;;;;;4.17;3.37;;;;;;;;;;6125357;23;20180;-82
2022/03/06 06:46:18;;;;;;;4.23;3.93;;;;;;;;;;6100468;23;20202;-82
2022/03/06 06:48:47;;;;;;;3.30;2.73;;;;;;;;;;6126378;23;20183;-82
2022/03/06 06:51:15;;;;;;;3.77;3.47;;;;;;;;;;6100404;23;20201;-82
2022/03/06 06:53:44;;;;;;;2.77;2.57;;;;;;;;;;6100535;23;20211;-82
2022/03/06 06:56:13;;;;;;;2.77;2.57;;;;;;;;;;6125112;23;20180;-82
2022/03/06 06:58:42;;;;;;;3.33;3.07;;;;;;;;;;6100330;23;20243;-82
2022/03/06 07:01:11;;;;;;;3.13;2.83;;;;;;;;;;6126201;23;20192;-82
2022/03/06 07:03:39;;;;;;;4.97;4.50;;;;;;;;;;6102264;23;20200;-82
2022/03/06 07:06:08;;;;;;;5.30;2.83;;;;;;;;;;6128314;23;20168;-82
2022/03/06 07:08:36;;;;;;;4.07;3.00;;;;;;;;;;6103000;23;20180;-82
2022/03/06 07:11:05;;;;;;;4.77;3.83;;;;;;;;;;6102512;23;20183;-82
2022/03/06 07:13:34;;;;;;;5.93;2.70;;;;;;;;;;6102844;23;20180;-82
2022/03/06 07:16:03;;;;;;;4.53;3.57;;;;;;;;;;6102845;23;20277;-82
2022/03/06 07:18:32;;;;;;;3.67;3.37;;;;;;;;;;6102703;23;20271;-82
2022/03/06 07:21:02;;;;;;;3.93;3.60;;;;;;;;;;6127689;23;20247;-82
2022/03/06 07:23:30;;;;;;;6.33;4.80;;;;;;;;;;6102823;23;20189;-82
2022/03/06 07:25:59;;;;;;;4.67;4.00;;;;;;;;;;6128549;23;20173;-82
2022/03/06 07:28:28;;;;;;;3.10;2.90;;;;;;;;;;6128213;23;20172;-82
2022/03/06 07:30:58;;;;;;;4.10;3.73;;;;;;;;;;6128168;23;20169;-82
2022/03/06 07:33:26;;;;;;;7.30;4.43;;;;;;;;;;6128179;23;20172;-82
2022/03/06 07:35:55;;;;;;;4.27;3.57;;;;;;;;;;6128402;23;20177;-82
2022/03/06 07:38:23;;;;;;;4.83;4.40;;;;;;;;;;6126713;23;20184;-82
2022/03/06 07:40:52;;;;;;;10.63;6.60;;;;;;;;;;6102494;23;20199;-82
2022/03/06 07:43:20;;;;;;;7.60;4.23;;;;;;;;;;6128117;23;20172;-82
2022/03/06 07:45:49;;;;;;;7.80;5.27;;;;;;;;;;6127870;23;20183;-82
2022/03/06 07:48:18;;;;;;;6.70;5.70;;;;;;;;;;6127947;23;20169;-82
2022/03/06 07:50:47;;;;;;;5.23;4.73;;;;;;;;;;6126603;23;20268;-83
2022/03/06 07:53:15;;;;;;;5.80;5.20;;;;;;;;;;6102276;23;20203;-82
2022/03/06 07:55:44;;;;;;;6.03;5.43;;;;;;;;;;6102480;23;20181;-82
2022/03/06 07:58:12;;;;;;;8.07;7.27;;;;;;;;;;6102263;23;20177;-82
2022/03/06 08:00:40;;;;;;;5.90;5.27;;;;;;;;;;6102154;23;20279;-82
2022/03/06 08:03:09;;;;;;;6.63;6.13;;;;;;;;;;6101694;23;20193;-82
2022/03/06 08:05:39;;;;;;;5.60;5.10;;;;;;;;;;6101552;23;20187;-82
2022/03/06 08:08:07;;;;;;;8.90;7.87;;;;;;;;;;6101504;23;20259;-82
2022/03/06 08:10:36;;;;;;;9.80;5.97;;;;;;;;;;6127428;23;20250;-82
2022/03/06 08:13:04;;;;;;;5.30;4.80;;;;;;;;;;6101558;23;20207;-82
2022/03/06 08:15:33;;;;;;;6.83;6.27;;;;;;;;;;6127789;23;20202;-82
2022/03/06 08:18:01;;;;;;;6.73;5.93;;;;;;;;;;6101894;23;20183;-82
2022/03/06 08:20:30;;;;;;;4.03;3.73;;;;;;;;;;6102015;23;20272;-82
2022/03/06 08:23:00;;;;;;;5.97;5.40;;;;;;;;;;6101601;23;20239;-82
2022/03/06 08:25:29;;;;;;;4.97;4.43;;;;;;;;;;6102215;23;20184;-82
2022/03/06 08:27:57;;;;;;;6.23;5.63;;;;;;;;;;6102261;23;20183;-82
2022/03/06 08:30:26;;;;;;;4.70;4.37;;;;;;;;;;6127675;23;20172;-82
2022/03/06 08:32:54;;;;;;;6.13;5.60;;;;;;;;;;6127738;23;20179;-83
2022/03/06 08:35:23;;;;;;;4.90;4.47;;;;;;;;;;6102433;23;20216;-82
2022/03/06 08:37:51;;;;;;;4.53;3.97;;;;;;;;;;6101241;23;20182;-83
2022/03/06 08:40:22;;;;;;;4.27;3.97;;;;;;;;;;6101617;23;20192;-82
2022/03/06 08:42:51;;;;;;;5.97;4.30;;;;;;;;;;6101853;23;20176;-82
2022/03/06 08:45:24;;;;;;;3.60;3.30;;;;;;;;;;6101955;23;20259;-83
2022/03/06 08:47:53;;;;;;;6.30;4.70;;;;;;;;;;6126193;23;20181;-82
2022/03/06 08:50:21;;;;;;;4.73;3.73;;;;;;;;;;6127114;23;20196;-82
2022/03/06 08:52:50;;;;;;;5.67;4.83;;;;;;;;;;6101440;23;20235;-82
2022/03/06 08:55:18;;;;;;;3.67;3.37;;;;;;;;;;6102082;23;20191;-82
2022/03/06 08:57:48;;;;;;;5.43;4.93;;;;;;;;;;6127328;23;20177;-82
2022/03/06 09:00:16;;;;;;;3.87;3.43;;;;;;;;;;6127313;23;20199;-82
2022/03/06 09:02:45;;;;;;;5.17;4.07;;;;;;;;;;6101401;23;20204;-82
2022/03/06 09:05:13;;;;;;;4.77;3.37;;;;;;;;;;6127721;23;20259;-83
2022/03/06 09:07:42;;;;;;;4.70;4.30;;;;;;;;;;6127498;23;20224;-82
2022/03/06 09:10:10;;;;;;;5.20;3.20;;;;;;;;;;6102118;23;20208;-82
2022/03/06 09:12:39;;;;;;;3.83;3.10;;;;;;;;;;6125752;23;20241;-82
2022/03/06 09:15:10;;;;;;;7.77;4.57;;;;;;;;;;6101353;23;20176;-82
2022/03/06 09:17:38;;;;;;;3.60;3.30;;;;;;;;;;6101552;23;20180;-82
2022/03/06 09:20:07;;;;;;;3.10;2.87;;;;;;;;;;6101757;23;20172;-82
2022/03/06 09:22:36;;;;;;;3.13;2.83;;;;;;;;;;6101569;23;20192;-82
2022/03/06 09:25:05;;;;;;;4.13;3.60;;;;;;;;;;6125627;23;20192;-82
2022/03/06 09:27:34;;;;;;;3.10;2.80;;;;;;;;;;6101452;23;20176;-82
2022/03/06 09:30:03;;;;;;;4.40;3.30;;;;;;;;;;6127452;23;20173;-83
2022/03/06 09:32:33;;;;;;;3.67;3.37;;;;;;;;;;6101833;23;20180;-82
2022/03/06 09:35:03;;;;;;;3.43;3.13;;;;;;;;;;6100939;23;20172;-83
2022/03/06 09:37:33;;;;;;;4.47;3.57;;;;;;;;;;6101595;23;20226;-82
2022/03/06 09:40:02;;;;;;;3.73;3.23;;;;;;;;;;6127191;23;20168;-83
2022/03/06 09:42:30;;;;;;;2.73;2.53;;;;;;;;;;6101242;23;20192;-82
2022/03/06 09:44:59;;;;;;;3.17;2.97;;;;;;;;;;6100735;23;20199;-82
2022/03/06 09:47:27;;;;;;;5.37;2.90;;;;;;;;;;6126758;23;20176;-83
2022/03/06 09:49:57;;;;;;;4.47;3.40;;;;;;;;;;6101282;23;20214;-82
2022/03/06 09:52:25;;;;;;;2.80;2.60;;;;;;;;;;6126617;23;20172;-82
2022/03/06 09:54:54;;;;;;;4.53;2.93;;;;;;;;;;6101022;23;20244;-82
2022/03/06 09:57:22;;;;;;;7.23;4.43;;;;;;;;;;6101394;23;20180;-82
2022/03/06 09:59:51;;;;;;;4.23;3.40;;;;;;;;;;6126685;23;20187;-82
2022/03/06 10:02:19;;;;;;;3.13;2.73;;;;;;;;;;6100307;23;20204;-82
2022/03/06 10:04:50;;;;;;;7.67;2.93;;;;;;;;;;6100345;23;20235;-82
2022/03/06 10:07:21;;;;;;;2.90;2.67;;;;;;;;;;6100361;23;20272;-82
2022/03/06 10:09:50;;;;;;;3.43;3.13;;;;;;;;;;6126839;23;20258;-82
2022/03/06 10:12:22;;;;;;;3.80;3.43;;;;;;;;;;6125098;23;20172;-82
2022/03/06 10:14:51;;;;;;;6.53;3.90;;;;;;;;;;6100815;23;20184;-82
2022/03/06 10:17:20;;;;;;;7.13;4.83;;;;;;;;;;6126577;23;20179;-82
2022/03/06 10:19:51;;;;;;;4.47;3.73;;;;;;;;;;6126338;23;20248;-82
2022/03/06 10:22:22;;;;;;;4.10;2.90;;;;;;;;;;6101088;23;20196;-82
2022/03/06 10:24:51;;;;;;;3.67;3.37;;;;;;;;;;6126743;23;20172;-82
2022/03/06 10:27:39;;;;;;;4.57;4.17;;;;;;;;;;6126575;23;20177;-83
2022/03/06 10:30:22;;;;;;;3.40;3.10;;;;;;;;;;6100310;23;20172;-83
2022/03/06 10:32:51;;;;;;;3.37;3.07;;;;;;;;;;6100939;23;20223;-82
2022/03/06 10:35:25;;;;;;;2.50;2.30;;;;;;;;;;6101173;23;20173;-83
2022/03/06 10:37:55;;;;;;;3.53;2.67;;;;;;;;;;6126137;23;20184;-82
2022/03/06 10:40:34;;;;;;;3.73;3.43;;;;;;;;;;6125888;23;20207;-82
2022/03/06 10:43:02;;;;;;;3.50;3.20;;;;;;;;;;6100494;23;20200;-83
2022/03/06 10:45:30;;;;;;;2.33;2.13;;;;;;;;;;6100238;23;20176;-83
2022/03/06 10:47:59;;;;;;;2.40;2.27;;;;;;;;;;6125799;23;20178;-83
2022/03/06 10:50:27;;;;;;;3.03;2.80;;;;;;;;;;6124985;23;20212;-83
2022/03/06 10:53:00;;;;;;;2.60;2.40;;;;;;;;;;6100262;23;20180;-83
2022/03/06 10:55:35;;;;;;;3.57;3.27;;;;;;;;;;6126144;23;20186;-83
2022/03/06 10:58:04;;;;;;;2.57;2.37;;;;;;;;;;6124551;23;20246;-83
2022/03/06 11:00:33;;;;;;;4.23;2.50;;;;;;;;;;6100429;23;20177;-83
2022/03/06 11:03:06;;;;;;;4.10;3.23;;;;;;;;;;6125945;23;20228;-83
2022/03/06 11:05:35;;;;;;;5.77;3.13;;;;;;;;;;6126122;23;20168;-84
2022/03/06 11:08:05;;;;;;;4.27;3.33;;;;;;;;;;6125835;23;20170;-83
2022/03/06 11:10:33;;;;;;;4.60;3.07;;;;;;;;;;6126556;23;20168;-83
2022/03/06 11:13:03;;;;;;;3.07;2.80;;;;;;;;;;6126473;23;20171;-83
2022/03/06 11:15:31;;;;;;;3.07;1.97;;;;;;;;;;6125642;23;20177;-83
2022/03/06 11:18:01;;;;;;;4.13;2.33;;;;;;;;;;6100520;23;20177;-83
2022/03/06 11:20:31;;;;;;;2.77;2.57;;;;;;;;;;6100305;23;20224;-82
2022/03/06 11:23:08;;;;;;;2.43;2.33;;;;;;;;;;6100238;23;20192;-83
2022/03/06 11:25:40;;;;;;;3.70;2.20;;;;;;;;;;6100075;23;20177;-83
2022/03/06 11:28:14;;;;;;;2.37;2.23;;;;;;;;;;6100735;23;20176;-83
2022/03/06 11:30:43;;;;;;;2.77;2.57;;;;;;;;;;6124819;23;20206;-83
2022/03/06 11:33:14;;;;;;;2.40;2.20;;;;;;;;;;6100901;23;20176;-82
2022/03/06 11:35:43;;;;;;;2.30;2.10;;;;;;;;;;6101426;23;20177;-83
2022/03/06 11:38:14;;;;;;;2.90;2.70;;;;;;;;;;6124891;23;20184;-83
2022/03/06 11:40:48;;;;;;;3.30;3.00;;;;;;;;;;6126745;23;20231;-83
2022/03/06 11:43:48;;;;;;;3.43;2.60;;;;;;;;;;6126098;23;20199;-82
2022/03/06 11:46:18;;;;;;;3.93;2.47;;;;;;;;;;6009438;23;20187;-83
2022/03/06 11:49:13;;;;;;;3.93;2.67;;;;;;;;;;6104548;23;20181;-83
2022/03/06 11:51:48;;;;;;;2.80;2.50;;;;;;;;;;6128323;23;20165;-83
2022/03/06 11:54:21;;;;;;;3.93;3.17;;;;;;;;;;6127287;23;20176;-83
2022/03/06 11:56:54;;;;;;;3.20;2.43;;;;;;;;;;6127942;23;20178;-82
2022/03/06 11:59:24;;;;;;;4.57;3.40;;;;;;;;;;6128144;23;20172;-83
2022/03/06 12:01:53;;;;;;;2.00;1.90;;;;;;;;;;6101759;23;20578;-83
2022/03/06 12:04:23;;;;;;;3.07;2.87;;;;;;;;;;6102096;23;20176;-83
2022/03/06 12:06:52;;;;;;;2.97;2.67;;;;;;;;;;6128022;23;20178;-83
2022/03/06 12:09:23;;;;;;;2.90;2.70;;;;;;;;;;6101974;23;20176;-82
2022/03/06 12:11:52;;;;;;;2.00;1.90;;;;;;;;;;6127784;23;20177;-83
2022/03/06 12:14:22;;;;;;;3.50;2.63;;;;;;;;;;6126138;23;20182;-83
2022/03/06 12:17:11;;;;;;;2.13;2.03;;;;;;;;;;6102077;23;20180;-83
2022/03/06 12:19:54;;;;;;;3.83;3.07;;;;;;;;;;6102021;23;20184;-83
2022/03/06 12:22:23;;;;;;;2.70;2.50;;;;;;;;;;6126973;23;20196;-83
2022/03/06 12:25:13;;;;;;;3.30;2.30;;;;;;;;;;6101946;23;20180;-83
2022/03/06 12:27:43;;;;;;;3.33;2.73;;;;;;;;;;6102208;23;20183;-82
2022/03/06 12:30:12;;;;;;;3.50;3.20;;;;;;;;;;6102120;23;20181;-82
2022/03/06 12:32:43;;;;;;;2.43;2.33;;;;;;;;;;6128274;23;20176;-82
2022/03/06 12:35:13;;;;;;;3.07;2.87;;;;;;;;;;6102075;23;20177;-83
2022/03/06 12:37:43;;;;;;;4.50;3.20;;;;;;;;;;6102332;23;20181;-83
2022/03/06 12:40:14;;;;;;;2.03;1.93;;;;;;;;;;6127892;23;20170;-82
2022/03/06 12:42:43;;;;;;;2.30;2.10;;;;;;;;;;6101515;23;20224;-83
2022/03/06 12:45:13;;;;;;;2.97;2.60;;;;;;;;;;6127347;23;20173;-83
2022/03/06 12:47:42;;;;;;;3.07;2.77;;;;;;;;;;6101965;23;20184;-83
2022/03/06 12:50:11;;;;;;;5.83;2.60;;;;;;;;;;6127356;23;20212;-83
2022/03/06 12:52:40;;;;;;;2.93;2.73;;;;;;;;;;6127875;23;20265;-83
2022/03/06 12:55:14;;;;;;;7.17;3.97;;;;;;;;;;6127581;23;20165;-83
2022/03/06 12:57:45;;;;;;;3.13;2.50;;;;;;;;;;6101339;23;20226;-83
2022/03/06 13:00:16;;;;;;;2.57;2.37;;;;;;;;;;6101775;23;20181;-83
2022/03/06 13:02:47;;;;;;;4.27;3.00;;;;;;;;;;6126350;23;20196;-83
2022/03/06 13:05:16;;;;;;;2.90;2.70;;;;;;;;;;6101448;23;20182;-83
2022/03/06 13:07:45;;;;;;;2.90;2.70;;;;;;;;;;6126255;23;20209;-82
2022/03/06 13:10:14;;;;;;;2.23;2.07;;;;;;;;;;6101622;23;20177;-83
2022/03/06 13:12:43;;;;;;;2.87;2.57;;;;;;;;;;6101428;23;20172;-83
2022/03/06 13:15:20;;;;;;;3.40;3.10;;;;;;;;;;6101470;23;20189;-83
2022/03/06 13:17:49;;;;;;;3.10;2.80;;;;;;;;;;6126054;23;20192;-83
2022/03/06 13:20:18;;;;;;;3.43;2.50;;;;;;;;;;6101586;23;20180;-83
2022/03/06 13:22:46;;;;;;;5.63;3.40;;;;;;;;;;6102012;23;20204;-83
2022/03/06 13:25:15;;;;;;;2.50;2.30;;;;;;;;;;6101262;23;20182;-83
2022/03/06 13:27:44;;;;;;;3.20;2.90;;;;;;;;;;6101732;23;20185;-83
2022/03/06 13:30:15;;;;;;;3.87;3.47;;;;;;;;;;6101397;23;20227;-82
2022/03/06 13:32:46;;;;;;;3.63;3.33;;;;;;;;;;6101581;23;20196;-83
2022/03/06 13:35:29;;;;;;;5.57;2.33;;;;;;;;;;6127557;23;20173;-83
2022/03/06 13:37:59;;;;;;;2.50;2.30;;;;;;;;;;6124283;23;20192;-83
2022/03/06 13:40:28;;;;;;;5.03;3.17;;;;;;;;;;6127224;23;20173;-83
2022/03/06 13:42:57;;;;;;;2.83;2.63;;;;;;;;;;6101289;23;20185;-83
2022/03/06 13:45:25;;;;;;;3.10;2.87;;;;;;;;;;6127175;23;20173;-83
2022/03/06 13:47:57;;;;;;;4.53;2.80;;;;;;;;;;6126991;23;20174;-83
2022/03/06 13:50:27;;;;;;;2.60;2.40;;;;;;;;;;6101165;23;20215;-83
2022/03/06 13:52:57;;;;;;;1.83;1.73;;;;;;;;;;6101787;23;20181;-83
2022/03/06 13:55:26;;;;;;;1.77;1.67;;;;;;;;;;6127016;23;20178;-83
2022/03/06 13:58:01;;;;;;;3.87;2.70;;;;;;;;;;6101418;23;20186;-83
2022/03/06 14:00:31;;;;;;;3.03;2.83;;;;;;;;;;6127125;23;20173;-83
2022/03/06 14:03:01;;;;;;;5.80;3.37;;;;;;;;;;6101119;23;20209;-83
2022/03/06 14:05:32;;;;;;;7.07;2.77;;;;;;;;;;6101913;23;20186;-83
2022/03/06 14:08:17;;;;;;;1.93;1.83;;;;;;;;;;6101174;23;20178;-83
2022/03/06 14:10:47;;;;;;;2.70;1.80;;;;;;;;;;6100872;23;20233;-83
2022/03/06 14:13:27;;;;;;;2.57;1.87;;;;;;;;;;6101693;23;20274;-82
2022/03/06 14:15:57;;;;;;;3.20;2.83;;;;;;;;;;6101372;23;20177;-83
2022/03/06 14:18:37;;;;;;;2.40;2.20;;;;;;;;;;6126771;23;20185;-83
2022/03/06 14:21:09;;;;;;;2.17;2.00;;;;;;;;;;6101034;23;20178;-82
2022/03/06 14:23:38;;;;;;;2.13;2.03;;;;;;;;;;6100994;23;20281;-83
2022/03/06 14:26:06;;;;;;;1.83;1.73;;;;;;;;;;6101279;23;20182;-83
2022/03/06 14:28:35;;;;;;;2.37;2.20;;;;;;;;;;6101525;23;20178;-83
2022/03/06 14:31:03;;;;;;;3.93;2.60;;;;;;;;;;6126401;23;20181;-83
2022/03/06 14:33:33;;;;;;;3.30;3.00;;;;;;;;;;6101193;23;20169;-82
2022/03/06 14:36:02;;;;;;;2.90;2.70;;;;;;;;;;6126487;23;20171;-83
2022/03/06 14:38:31;;;;;;;2.83;2.63;;;;;;;;;;6101195;23;20244;-82
2022/03/06 14:41:04;;;;;;;2.70;2.50;;;;;;;;;;6101012;23;20181;-83
2022/03/06 14:43:35;;;;;;;3.40;2.93;;;;;;;;;;6101235;23;20205;-83
2022/03/06 14:46:04;;;;;;;3.17;2.97;;;;;;;;;;6100795;23;20180;-83
2022/03/06 14:48:33;;;;;;;5.37;2.30;;;;;;;;;;6125039;23;20241;-83
2022/03/06 14:51:05;;;;;;;2.33;2.13;;;;;;;;;;6100723;23;20212;-83
2022/03/06 14:53:33;;;;;;;3.33;2.53;;;;;;;;;;6100950;23;20255;-83
2022/03/06 14:56:02;;;;;;;2.27;2.07;;;;;;;;;;6100316;23;20184;-82